Time;durP1;ratioP1;P1;durP2;ratioP2;P2;SDS_P1;SDS_P2;PMS_P1;PMS_P2;Temp;Humidity;BMP_temperature;BMP_pressure;BME280_temperature;BME280_humidity;BME280_pressure;Samples;Min_cycle;Max_cycle;Signal;HPM_P1;HPM_P2
2023/01/03 00:01:21;;;;;;;11.95;7.20;;;8.30;99.90;;;;;;5045556;28;20041;-60
2023/01/03 00:03:47;;;;;;;10.00;6.35;;;8.20;99.90;;;;;;5045808;28;20048;-60
2023/01/03 00:06:29;;;;;;;11.82;6.43;;;8.40;99.90;;;;;;5025634;28;20029;-60
2023/01/03 00:08:57;;;;;;;12.90;7.13;;;8.10;99.90;;;;;;5024653;28;20037;-60
2023/01/03 00:14:13;;;;;;;13.18;6.60;;;8.10;99.90;;;;;;5045089;28;20924;-60
2023/01/03 00:16:39;;;;;;;12.20;6.68;;;8.20;99.90;;;;;;5046246;28;20033;-61
2023/01/03 00:19:07;;;;;;;10.80;6.30;;;8.00;99.90;;;;;;5045973;28;20048;-60
2023/01/03 00:21:33;;;;;;;9.00;5.82;;;8.00;99.90;;;;;;5044833;28;20533;-61
2023/01/03 00:23:58;;;;;;;11.02;6.50;;;8.00;99.90;;;;;;5046414;28;20067;-60
2023/01/03 00:26:24;;;;;;;13.63;7.07;;;8.20;99.90;;;;;;5042088;28;20029;-61
2023/01/03 00:28:49;;;;;;;11.40;6.80;;;7.90;99.90;;;;;;5046224;28;20037;-61
2023/01/03 00:31:15;;;;;;;10.23;6.78;;;7.90;99.90;;;;;;5045352;28;20033;-61
2023/01/03 00:33:40;;;;;;;15.52;7.68;;;7.90;99.90;;;;;;5045386;28;20055;-61
2023/01/03 00:36:08;;;;;;;13.75;7.50;;;8.10;99.90;;;;;;5044237;28;20048;-60
2023/01/03 00:38:35;;;;;;;15.52;7.10;;;8.30;99.90;;;;;;5045734;28;20124;-61
2023/01/03 00:41:08;;;;;;;12.88;7.03;;;8.40;99.90;;;;;;5044067;28;20807;-60
2023/01/03 00:43:34;;;;;;;16.23;6.72;;;8.40;99.90;;;;;;5038490;28;20532;-61
2023/01/03 00:46:00;;;;;;;9.93;7.07;;;8.10;99.90;;;;;;5047292;28;20041;-61
2023/01/03 00:48:26;;;;;;;12.50;7.05;;;8.10;99.90;;;;;;5048407;28;20443;-60
2023/01/03 00:50:52;;;;;;;12.63;7.40;;;8.00;99.90;;;;;;5021215;28;20053;-61
2023/01/03 00:53:18;;;;;;;12.45;7.40;;;8.10;99.90;;;;;;5026340;28;20044;-61
2023/01/03 00:55:44;;;;;;;12.82;7.05;;;8.10;99.90;;;;;;5021921;28;20045;-61
2023/01/03 00:58:10;;;;;;;12.57;7.45;;;8.00;99.90;;;;;;5024015;28;20500;-60
2023/01/03 01:00:35;;;;;;;14.77;7.13;;;8.00;99.90;;;;;;5027776;28;20161;-60
2023/01/03 01:03:01;;;;;;;13.95;7.43;;;8.00;99.90;;;;;;5024510;28;20040;-59
2023/01/03 01:05:28;;;;;;;9.82;7.05;;;7.90;99.90;;;;;;5022046;28;20038;-60
2023/01/03 01:07:54;;;;;;;12.40;7.78;;;8.00;99.90;;;;;;5034689;28;20052;-61
2023/01/03 01:10:19;;;;;;;14.13;7.10;;;8.20;99.90;;;;;;5041379;28;20369;-60
2023/01/03 01:12:46;;;;;;;11.73;7.45;;;8.20;99.90;;;;;;5046366;28;20561;-61
2023/01/03 01:15:12;;;;;;;14.32;7.63;;;8.30;99.90;;;;;;5043603;28;20040;-61
2023/01/03 01:17:39;;;;;;;9.52;6.97;;;8.30;99.90;;;;;;5041038;28;20045;-60
2023/01/03 01:20:05;;;;;;;12.35;6.70;;;8.30;99.90;;;;;;5040954;28;20424;-60
2023/01/03 01:22:32;;;;;;;14.40;7.25;;;8.30;99.90;;;;;;5044733;28;20029;-60
2023/01/03 01:24:58;;;;;;;9.80;6.45;;;8.30;99.90;;;;;;5043921;28;20103;-61
2023/01/03 01:27:23;;;;;;;12.77;6.95;;;8.40;99.90;;;;;;5044299;28;20503;-61
2023/01/03 01:29:49;;;;;;;19.85;7.40;;;8.30;99.90;;;;;;5044806;28;20037;-61
2023/01/03 01:32:14;;;;;;;16.73;7.20;;;8.30;99.90;;;;;;5043877;28;20036;-60
2023/01/03 01:34:40;;;;;;;11.98;7.05;;;8.20;99.90;;;;;;5045138;28;20523;-61
2023/01/03 01:37:05;;;;;;;13.48;7.07;;;8.10;99.90;;;;;;5043999;28;20388;-60
2023/01/03 01:39:32;;;;;;;11.10;6.85;;;8.10;99.90;;;;;;5045825;28;20173;-61
2023/01/03 01:44:53;;;;;;;15.10;7.53;;;8.00;99.90;;;;;;5023838;28;20094;-60
2023/01/03 01:47:24;;;;;;;15.65;7.78;;;8.00;99.90;;;;;;5043038;28;20036;-60
2023/01/03 01:50:10;;;;;;;13.13;7.25;;;8.00;99.90;;;;;;5042171;28;20033;-60
2023/01/03 01:52:39;;;;;;;11.57;7.28;;;7.90;99.90;;;;;;5040816;28;20037;-60
2023/01/03 01:55:09;;;;;;;12.75;6.80;;;7.80;99.90;;;;;;5016993;28;20556;-60
2023/01/03 01:57:37;;;;;;;11.98;6.70;;;7.90;99.90;;;;;;5043108;28;20040;-61
2023/01/03 02:00:05;;;;;;;10.85;6.68;;;7.70;99.90;;;;;;5016933;28;20606;-60
2023/01/03 02:02:31;;;;;;;8.07;6.18;;;7.60;99.90;;;;;;5023029;28;20033;-61
2023/01/03 02:04:58;;;;;;;10.88;6.32;;;7.60;99.90;;;;;;5042915;28;20059;-60
2023/01/03 02:07:23;;;;;;;10.20;6.03;;;7.50;99.90;;;;;;5043273;28;20404;-60
2023/01/03 02:09:53;;;;;;;11.32;5.88;;;7.40;99.90;;;;;;5042810;28;20037;-60
2023/01/03 02:15:42;;;;;;;9.60;6.05;;;7.10;99.90;;;;;;5040859;28;20546;-61
2023/01/03 02:18:21;;;;;;;9.20;6.05;;;7.10;99.90;;;;;;5043494;28;20654;-61
2023/01/03 02:21:19;;;;;;;10.90;5.85;;;7.10;99.90;;;;;;5041600;28;20044;-61
2023/01/03 02:24:16;;;;;;;12.02;6.00;;;7.00;99.90;;;;;;4985423;28;20330;-61
2023/01/03 02:27:27;;;;;;;9.30;5.78;;;6.90;99.90;;;;;;5022844;28;20546;-60
2023/01/03 02:30:24;;;;;;;9.50;5.68;;;6.80;99.90;;;;;;5009737;28;20476;-60
2023/01/03 02:33:05;;;;;;;9.57;5.72;;;6.80;99.90;;;;;;5043199;28;20044;-61
2023/01/03 02:35:51;;;;;;;10.00;5.70;;;6.70;99.90;;;;;;5043757;28;20585;-61
2023/01/03 02:38:36;;;;;;;8.60;4.85;;;6.70;99.90;;;;;;5039717;28;20408;-61
2023/01/03 02:41:18;;;;;;;9.98;5.68;;;6.40;99.90;;;;;;5040702;28;20132;-61
2023/01/03 02:43:58;;;;;;;9.85;5.38;;;6.30;99.90;;;;;;5020498;28;20522;-61
2023/01/03 02:46:42;;;;;;;9.68;5.53;;;6.40;99.90;;;;;;5041292;28;20049;-61
2023/01/03 02:49:17;;;;;;;7.63;5.20;;;6.30;99.90;;;;;;5041514;28;20048;-61
2023/01/03 02:51:51;;;;;;;8.32;5.22;;;6.30;99.90;;;;;;5038918;28;20170;-60
2023/01/03 02:54:22;;;;;;;9.52;5.32;;;6.30;99.90;;;;;;5024905;28;20495;-61
2023/01/03 02:56:53;;;;;;;10.40;5.05;;;6.20;99.90;;;;;;5042121;28;20037;-62
2023/01/03 02:59:24;;;;;;;7.85;5.03;;;6.10;99.90;;;;;;5043151;28;20044;-61
2023/01/03 03:01:51;;;;;;;7.97;5.05;;;6.10;99.90;;;;;;5025138;28;20033;-61
2023/01/03 03:04:18;;;;;;;13.60;5.63;;;6.00;99.90;;;;;;5041468;28;20508;-60
2023/01/03 03:07:01;;;;;;;9.35;5.03;;;6.00;99.90;;;;;;5040499;28;20087;-60
2023/01/03 03:09:26;;;;;;;7.40;4.95;;;6.00;99.90;;;;;;5041547;28;20865;-60
2023/01/03 03:14:48;;;;;;;12.68;6.10;;;6.00;99.90;;;;;;5042062;28;20043;-61
2023/01/03 03:17:20;;;;;;;7.07;5.20;;;6.00;99.90;;;;;;5013858;28;20368;-61
2023/01/03 03:25:54;;;;;;;10.25;5.50;;;5.90;99.90;;;;;;5038590;28;20036;-60
2023/01/03 03:28:34;;;;;;;9.38;5.22;;;5.80;99.90;;;;;;5021958;28;20476;-61
2023/01/03 03:31:23;;;;;;;9.82;5.43;;;5.80;99.90;;;;;;5040389;28;20591;-61
2023/01/03 03:33:55;;;;;;;16.35;6.05;;;5.70;99.90;;;;;;5042005;28;20048;-60
2023/01/03 03:36:24;;;;;;;12.13;6.53;;;5.80;99.90;;;;;;5013238;28;20033;-60
2023/01/03 03:38:50;;;;;;;9.75;5.88;;;5.80;99.90;;;;;;5024816;28;20307;-61
2023/01/03 03:47:25;;;;;;;9.18;5.65;;;5.50;99.90;;;;;;5032128;28;20098;-60
2023/01/03 03:49:55;;;;;;;11.52;5.80;;;5.60;99.90;;;;;;5041622;28;20528;-61
2023/01/03 03:52:26;;;;;;;9.93;5.80;;;5.60;99.90;;;;;;5019986;28;20128;-60
2023/01/03 03:55:01;;;;;;;11.30;5.43;;;5.60;99.90;;;;;;5028378;28;20533;-60
2023/01/03 03:57:39;;;;;;;14.57;6.10;;;5.60;99.90;;;;;;5035912;28;20116;-61
2023/01/03 04:00:11;;;;;;;12.70;5.72;;;5.60;99.90;;;;;;5004655;28;20045;-61
2023/01/03 04:02:37;;;;;;;8.52;5.70;;;5.60;99.90;;;;;;5012823;28;20037;-60
2023/01/03 04:05:06;;;;;;;11.38;5.30;;;5.50;99.90;;;;;;5028488;28;20030;-60
2023/01/03 04:07:33;;;;;;;12.07;5.80;;;5.50;99.90;;;;;;5036443;28;20053;-60
2023/01/03 04:09:58;;;;;;;11.15;5.72;;;5.50;99.90;;;;;;5023866;28;20037;-61
2023/01/03 04:12:24;;;;;;;10.52;5.65;;;5.60;99.90;;;;;;5024197;28;20401;-61
2023/01/03 04:14:49;;;;;;;10.02;5.60;;;5.50;99.90;;;;;;5028299;28;20092;-61
2023/01/03 04:17:15;;;;;;;8.32;5.63;;;5.60;99.90;;;;;;5032749;28;20045;-61
2023/01/03 04:19:41;;;;;;;9.27;5.30;;;5.60;99.90;;;;;;5031925;28;20458;-61
2023/01/03 04:22:06;;;;;;;9.57;5.68;;;5.40;99.90;;;;;;5029933;28;20115;-61
2023/01/03 04:24:32;;;;;;;12.77;6.03;;;5.40;99.90;;;;;;5038468;28;20033;-61
2023/01/03 04:26:57;;;;;;;12.50;5.47;;;5.50;99.90;;;;;;5028853;28;20042;-60
2023/01/03 04:29:23;;;;;;;10.65;5.53;;;5.40;99.90;;;;;;5029070;28;20508;-60
2023/01/03 04:31:48;;;;;;;11.90;5.60;;;5.30;99.90;;;;;;5029581;28;20029;-60
2023/01/03 04:34:14;;;;;;;9.88;6.00;;;5.30;99.90;;;;;;5026415;28;20462;-60
2023/01/03 04:36:40;;;;;;;10.40;5.30;;;5.30;99.90;;;;;;5030680;28;20870;-62
2023/01/03 04:39:05;;;;;;;11.00;5.90;;;5.30;99.90;;;;;;5026110;28;20055;-60
2023/01/03 04:41:31;;;;;;;10.75;6.13;;;5.40;99.90;;;;;;5029716;28;20125;-60
2023/01/03 04:44:03;;;;;;;11.27;6.13;;;5.40;99.90;;;;;;5032237;28;20079;-60
2023/01/03 04:46:37;;;;;;;9.93;4.43;;;5.30;99.90;;;;;;5043286;28;20068;-61
2023/01/03 04:49:04;;;;;;;8.27;5.85;;;5.30;99.90;;;;;;5043775;28;20565;-60
2023/01/03 04:51:30;;;;;;;11.32;6.00;;;5.20;99.90;;;;;;5043998;28;20119;-60
2023/01/03 04:53:56;;;;;;;11.50;5.65;;;5.20;99.90;;;;;;5045292;28;20816;-61
2023/01/03 04:56:30;;;;;;;12.40;6.30;;;5.10;99.90;;;;;;5044292;28;20043;-60
2023/01/03 04:58:55;;;;;;;9.57;6.38;;;5.10;99.90;;;;;;5043952;28;20123;-60
2023/01/03 05:01:22;;;;;;;9.45;6.32;;;5.10;99.90;;;;;;5044602;28;20170;-61
2023/01/03 05:03:48;;;;;;;10.90;6.18;;;5.10;99.90;;;;;;5045429;28;20037;-61
2023/01/03 05:06:14;;;;;;;11.13;6.15;;;5.00;99.90;;;;;;5043384;28;20031;-60
2023/01/03 05:08:40;;;;;;;12.52;6.30;;;5.00;99.90;;;;;;5045127;28;20041;-61
2023/01/03 05:11:06;;;;;;;13.23;6.82;;;5.10;99.90;;;;;;5045590;28;20051;-61
2023/01/03 05:13:32;;;;;;;11.02;6.82;;;5.20;99.90;;;;;;5045081;28;20070;-60
2023/01/03 05:16:12;;;;;;;13.15;6.88;;;5.20;99.90;;;;;;5042968;28;20045;-60
2023/01/03 05:18:38;;;;;;;14.02;7.38;;;5.20;99.90;;;;;;5045937;28;20183;-61
2023/01/03 05:26:51;;;;;;;11.40;7.00;;;5.20;99.90;;;;;;4996181;28;20099;-62
2023/01/03 05:29:19;;;;;;;11.20;6.45;;;5.20;99.90;;;;;;5043402;28;20067;-61
2023/01/03 05:31:45;;;;;;;10.77;6.47;;;5.30;99.90;;;;;;5044834;28;20041;-61
2023/01/03 05:34:11;;;;;;;12.23;6.90;;;5.30;99.90;;;;;;5044628;28;20107;-60
2023/01/03 05:36:36;;;;;;;10.02;6.97;;;5.40;99.90;;;;;;5043822;28;20040;-60
2023/01/03 05:39:03;;;;;;;12.73;7.95;;;5.30;99.90;;;;;;5043180;28;20053;-60
2023/01/03 05:42:14;;;;;;;14.13;7.15;;;5.40;99.90;;;;;;5039117;28;20549;-61
2023/01/03 05:44:15;;;;;;;11.07;7.07;;;5.50;99.90;;;;;;5033712;28;20055;-61
2023/01/03 05:46:41;;;;;;;9.73;7.30;;;5.50;99.90;;;;;;5044308;28;20090;-61
2023/01/03 05:49:06;;;;;;;9.25;6.68;;;5.40;99.90;;;;;;5043912;28;20438;-60
2023/01/03 05:51:32;;;;;;;14.70;7.55;;;5.50;99.90;;;;;;5043698;28;20380;-60
2023/01/03 05:53:57;;;;;;;13.05;7.35;;;5.40;99.90;;;;;;5041602;28;20087;-60
2023/01/03 05:56:23;;;;;;;11.57;7.30;;;5.40;99.90;;;;;;5043443;28;20037;-61
2023/01/03 05:58:49;;;;;;;10.98;7.13;;;5.30;99.90;;;;;;5043398;28;20037;-60
2023/01/03 06:01:15;;;;;;;9.77;6.78;;;5.30;99.90;;;;;;5041240;28;20044;-60
2023/01/03 06:03:45;;;;;;;11.52;7.53;;;5.20;99.90;;;;;;5033349;28;20554;-61
2023/01/03 06:06:13;;;;;;;11.48;7.95;;;5.20;99.90;;;;;;5036027;28;20033;-60
2023/01/03 06:08:39;;;;;;;12.63;7.40;;;5.10;99.90;;;;;;5023679;28;20516;-61
2023/01/03 06:11:06;;;;;;;14.40;7.63;;;5.20;99.90;;;;;;5038084;28;20059;-60
2023/01/03 06:13:31;;;;;;;10.15;7.28;;;5.20;99.90;;;;;;5039454;28;20040;-60
2023/01/03 06:19:14;;;;;;;12.98;7.38;;;5.20;99.90;;;;;;4986035;28;20049;-60
2023/01/03 06:21:40;;;;;;;13.63;7.50;;;5.20;99.90;;;;;;5012064;28;20033;-61
2023/01/03 06:24:06;;;;;;;12.88;7.40;;;5.30;99.90;;;;;;5016287;28;20051;-60
2023/01/03 06:26:32;;;;;;;9.77;7.30;;;5.40;99.90;;;;;;5034706;28;20037;-60
2023/01/03 06:28:58;;;;;;;12.57;7.28;;;5.40;99.90;;;;;;5008841;28;20116;-60
2023/01/03 06:31:24;;;;;;;11.40;7.25;;;5.40;99.90;;;;;;5034522;28;20742;-61
2023/01/03 06:33:50;;;;;;;11.70;6.90;;;5.50;99.90;;;;;;5028226;28;20038;-60
2023/01/03 06:36:17;;;;;;;15.18;8.32;;;5.50;99.90;;;;;;5020702;28;20083;-61
2023/01/03 06:38:43;;;;;;;16.67;8.85;;;5.60;99.90;;;;;;5024440;28;20527;-60
2023/01/03 06:41:09;;;;;;;14.25;8.40;;;5.80;99.90;;;;;;5020263;28;20045;-60
2023/01/03 06:43:35;;;;;;;15.13;8.52;;;5.70;99.90;;;;;;5025698;28;20444;-60
2023/01/03 06:54:29;;;;;;;16.83;8.95;;;5.80;99.90;;;;;;5040727;28;20111;-60
2023/01/03 06:56:55;;;;;;;16.60;8.50;;;5.80;99.90;;;;;;5028874;28;20037;-62
2023/01/03 06:59:22;;;;;;;13.57;8.05;;;5.70;99.90;;;;;;5031249;28;20103;-60
2023/01/03 07:01:49;;;;;;;14.45;8.07;;;5.70;99.90;;;;;;5011889;28;20039;-60
2023/01/03 07:04:16;;;;;;;15.43;8.05;;;5.60;99.90;;;;;;5033034;28;20615;-61
2023/01/03 07:06:42;;;;;;;9.68;7.57;;;5.60;99.90;;;;;;5025481;28;20037;-62
2023/01/03 07:09:08;;;;;;;14.98;7.90;;;5.60;99.90;;;;;;5033390;28;20041;-61
2023/01/03 07:11:35;;;;;;;15.23;8.38;;;5.60;99.90;;;;;;5031648;28;20107;-60
2023/01/03 07:14:02;;;;;;;11.88;7.28;;;5.70;99.90;;;;;;5023685;28;20044;-60
2023/01/03 07:16:34;;;;;;;10.68;6.90;;;5.80;99.90;;;;;;5030365;28;20049;-60
2023/01/03 07:19:00;;;;;;;23.27;7.72;;;5.90;99.90;;;;;;5027990;28;20085;-60
2023/01/03 07:21:29;;;;;;;17.27;7.68;;;6.00;99.90;;;;;;5024416;28;20032;-61
2023/01/03 07:23:56;;;;;;;15.13;7.57;;;6.10;99.90;;;;;;5028791;28;20534;-61
2023/01/03 07:26:23;;;;;;;18.52;8.75;;;6.10;99.90;;;;;;5028212;28;20064;-61
2023/01/03 07:28:50;;;;;;;19.38;10.05;;;6.10;99.90;;;;;;5034913;28;20504;-61
2023/01/03 07:31:16;;;;;;;19.02;9.27;;;6.10;99.90;;;;;;5027523;28;20029;-60
2023/01/03 07:33:41;;;;;;;16.75;8.38;;;6.00;99.90;;;;;;5043586;28;20039;-60
2023/01/03 07:36:09;;;;;;;19.65;8.43;;;6.10;99.90;;;;;;5024294;28;20064;-60
2023/01/03 07:38:36;;;;;;;13.55;8.02;;;6.10;99.90;;;;;;5016764;28;20501;-60
2023/01/03 07:41:03;;;;;;;14.88;7.53;;;6.10;99.90;;;;;;4993513;28;20029;-60
2023/01/03 07:43:38;;;;;;;13.82;8.35;;;5.90;99.90;;;;;;5011742;28;20037;-61
2023/01/03 07:46:08;;;;;;;17.70;8.15;;;5.90;99.90;;;;;;5017284;28;20038;-60
2023/01/03 07:48:33;;;;;;;16.90;7.97;;;6.10;99.90;;;;;;5014294;28;20038;-60
2023/01/03 07:50:59;;;;;;;17.08;8.15;;;6.00;99.90;;;;;;4994065;28;20035;-60
2023/01/03 07:53:25;;;;;;;13.57;7.82;;;5.80;99.90;;;;;;5014869;28;20072;-61
2023/01/03 07:55:51;;;;;;;13.88;8.65;;;5.90;99.90;;;;;;5014036;28;20573;-60
2023/01/03 07:58:16;;;;;;;20.80;8.90;;;6.00;99.90;;;;;;5017551;28;20063;-60
2023/01/03 08:00:42;;;;;;;16.30;8.75;;;6.10;99.90;;;;;;5011942;28;20132;-61
2023/01/03 08:03:08;;;;;;;14.60;9.05;;;6.20;99.90;;;;;;5014523;28;20044;-61
2023/01/03 08:05:35;;;;;;;20.15;9.25;;;6.10;99.90;;;;;;5014427;28;20056;-61
2023/01/03 08:08:01;;;;;;;15.65;8.80;;;6.10;99.90;;;;;;5019214;28;20100;-61
2023/01/03 08:13:17;;;;;;;15.32;8.27;;;6.20;99.90;;;;;;5015521;28;20044;-61
2023/01/03 08:15:51;;;;;;;17.90;7.90;;;6.30;99.90;;;;;;5013409;28;20037;-61
2023/01/03 08:18:19;;;;;;;13.10;7.88;;;6.40;99.90;;;;;;5025159;28;20041;-61
2023/01/03 08:20:45;;;;;;;14.93;8.10;;;6.30;99.90;;;;;;4998267;28;20042;-61
2023/01/03 08:23:11;;;;;;;14.15;7.65;;;6.40;99.90;;;;;;5011938;28;20048;-60
2023/01/03 08:25:37;;;;;;;16.33;8.35;;;6.40;99.90;;;;;;5010449;28;20034;-61
2023/01/03 08:28:04;;;;;;;16.52;8.18;;;6.50;99.90;;;;;;5012312;28;20052;-62
2023/01/03 08:30:31;;;;;;;13.90;8.02;;;6.50;99.90;;;;;;5012345;28;20510;-61
2023/01/03 08:33:01;;;;;;;14.07;7.90;;;6.50;99.90;;;;;;5021311;28;20033;-60
2023/01/03 08:35:31;;;;;;;13.10;7.88;;;6.60;99.90;;;;;;5015825;28;20051;-61
2023/01/03 08:38:00;;;;;;;16.08;8.10;;;6.60;99.90;;;;;;4996545;28;20038;-62
2023/01/03 08:40:27;;;;;;;12.82;8.60;;;6.60;99.90;;;;;;5034159;28;20052;-60
2023/01/03 08:42:52;;;;;;;12.43;8.27;;;6.70;99.90;;;;;;5021792;28;20037;-60
2023/01/03 08:45:19;;;;;;;15.48;7.72;;;6.80;99.90;;;;;;5042800;28;20032;-61
2023/01/03 08:47:46;;;;;;;10.48;7.32;;;6.90;99.90;;;;;;5049302;28;20558;-61
2023/01/03 08:50:12;;;;;;;12.65;7.25;;;6.90;99.90;;;;;;5045204;28;20124;-60
2023/01/03 08:52:38;;;;;;;11.63;7.10;;;6.90;99.90;;;;;;5024159;28;20116;-61
2023/01/03 08:55:04;;;;;;;12.85;7.18;;;7.10;99.90;;;;;;5016610;28;20168;-62
2023/01/03 08:57:30;;;;;;;14.07;6.93;;;7.10;99.90;;;;;;5023409;28;20192;-61
2023/01/03 08:59:56;;;;;;;13.35;6.75;;;7.10;99.90;;;;;;5024454;28;20120;-60
2023/01/03 09:02:21;;;;;;;10.15;6.22;;;7.10;99.90;;;;;;5003451;28;20441;-61
2023/01/03 09:04:47;;;;;;;12.93;6.50;;;7.20;99.90;;;;;;5010434;28;20030;-61
2023/01/03 09:07:12;;;;;;;13.43;6.20;;;7.20;99.90;;;;;;5022494;28;20026;-61
2023/01/03 09:09:38;;;;;;;13.43;7.40;;;7.30;99.90;;;;;;5024740;28;20040;-60
2023/01/03 09:12:03;;;;;;;10.48;6.82;;;7.40;99.90;;;;;;5025406;28;20400;-61
2023/01/03 09:14:30;;;;;;;13.25;6.47;;;7.50;99.90;;;;;;5026864;28;20338;-61
2023/01/03 09:16:55;;;;;;;15.55;6.85;;;7.50;99.90;;;;;;5025780;28;20041;-62
2023/01/03 09:19:21;;;;;;;13.75;6.78;;;7.60;99.90;;;;;;5009581;28;20041;-60
2023/01/03 09:21:48;;;;;;;8.57;6.20;;;7.60;99.90;;;;;;5045776;28;20131;-62
2023/01/03 09:24:14;;;;;;;9.98;6.40;;;7.60;99.90;;;;;;5022139;28;20546;-60
2023/01/03 09:26:39;;;;;;;9.60;6.78;;;7.70;99.90;;;;;;5040468;28;20183;-61
2023/01/03 09:29:05;;;;;;;9.38;6.25;;;7.70;99.90;;;;;;5040664;28;20304;-60
2023/01/03 09:31:33;;;;;;;9.00;5.93;;;7.80;99.90;;;;;;5040302;28;20049;-61
2023/01/03 09:34:01;;;;;;;11.25;5.97;;;7.90;99.90;;;;;;5045584;28;20037;-61
2023/01/03 09:36:27;;;;;;;10.10;5.80;;;7.80;99.90;;;;;;5044950;28;20048;-62
2023/01/03 09:38:52;;;;;;;10.23;5.82;;;7.80;99.90;;;;;;5045498;28;20033;-61
2023/01/03 09:41:23;;;;;;;9.25;6.05;;;7.90;99.90;;;;;;5043071;28;20037;-61
2023/01/03 09:43:57;;;;;;;9.77;5.75;;;8.00;99.90;;;;;;5045892;28;20060;-61
2023/01/03 09:46:24;;;;;;;12.45;6.70;;;8.10;99.90;;;;;;5030228;28;20049;-61
2023/01/03 09:48:51;;;;;;;10.35;5.70;;;8.10;99.90;;;;;;5014314;28;20586;-62
2023/01/03 10:06:10;;;;;;;9.88;5.35;;;7.90;99.90;;;;;;5043682;28;20175;-61
2023/01/03 10:08:49;;;;;;;10.63;5.85;;;7.90;99.90;;;;;;5037115;28;20044;-61
2023/01/03 10:11:28;;;;;;;7.38;5.40;;;8.10;99.90;;;;;;5036368;28;20102;-60
2023/01/03 10:14:31;;;;;;;8.20;5.18;;;8.10;99.90;;;;;;5041324;28;20123;-61
2023/01/03 10:17:11;;;;;;;8.13;5.07;;;8.10;99.90;;;;;;5022254;28;20045;-60
2023/01/03 10:19:54;;;;;;;7.50;4.70;;;8.20;99.90;;;;;;5024943;28;20117;-60
2023/01/03 10:22:26;;;;;;;7.07;4.88;;;8.20;99.90;;;;;;5019280;28;20115;-61
2023/01/03 10:25:04;;;;;;;9.02;5.00;;;8.30;99.90;;;;;;5026478;28;20041;-61
2023/01/03 10:27:37;;;;;;;9.43;5.10;;;8.40;99.90;;;;;;5041588;28;20120;-61
2023/01/03 10:30:05;;;;;;;10.45;4.85;;;8.70;99.90;;;;;;5043453;28;20449;-61
2023/01/03 10:32:58;;;;;;;10.73;5.15;;;8.60;99.90;;;;;;5040357;28;20135;-62
2023/01/03 10:35:31;;;;;;;10.02;4.72;;;8.60;99.90;;;;;;5013563;28;20036;-60
2023/01/03 10:37:58;;;;;;;10.48;5.45;;;8.70;99.90;;;;;;5022716;28;20523;-61
2023/01/03 10:40:38;;;;;;;7.30;4.95;;;8.70;99.90;;;;;;5032210;28;20385;-61
2023/01/03 10:43:27;;;;;;;7.40;4.95;;;8.80;99.90;;;;;;5021058;28;20456;-61
2023/01/03 10:45:59;;;;;;;8.13;4.57;;;8.80;99.90;;;;;;5004586;28;20076;-61
2023/01/03 10:48:34;;;;;;;10.13;4.43;;;8.70;99.90;;;;;;5019885;28;20541;-60
2023/01/03 10:51:03;;;;;;;7.43;4.05;;;8.80;99.90;;;;;;5021530;28;20091;-61
2023/01/03 10:53:29;;;;;;;6.93;4.20;;;8.70;99.90;;;;;;5026860;28;20413;-61
2023/01/03 10:55:56;;;;;;;6.75;4.50;;;8.90;99.90;;;;;;5024519;28;20029;-61
2023/01/03 10:58:26;;;;;;;14.50;4.65;;;8.90;99.90;;;;;;5025847;28;20584;-62
2023/01/03 11:00:54;;;;;;;9.80;4.47;;;9.00;99.90;;;;;;5023873;28;20042;-61
2023/01/03 11:03:23;;;;;;;9.18;4.22;;;8.90;99.90;;;;;;5034170;28;20041;-62
2023/01/03 11:06:00;;;;;;;8.63;4.15;;;9.00;99.90;;;;;;5019814;28;20057;-61
2023/01/03 11:08:46;;;;;;;8.52;3.97;;;9.10;99.90;;;;;;5022451;28;20049;-62
2023/01/03 11:11:31;;;;;;;16.88;4.53;;;9.00;99.90;;;;;;5023550;28;20045;-61
2023/01/03 11:14:18;;;;;;;9.45;4.00;;;9.00;99.90;;;;;;5048559;28;20069;-61
2023/01/03 11:16:44;;;;;;;10.05;3.90;;;9.20;99.90;;;;;;5044068;28;20128;-62
2023/01/03 11:19:16;;;;;;;7.35;4.05;;;9.20;99.90;;;;;;5042506;28;20086;-60
2023/01/03 11:21:55;;;;;;;6.47;3.47;;;9.20;99.90;;;;;;5025996;28;20107;-61
2023/01/03 11:24:40;;;;;;;8.63;3.72;;;9.20;99.90;;;;;;5025681;28;20500;-61
2023/01/03 11:27:30;;;;;;;8.77;3.60;;;9.40;99.90;;;;;;5041285;28;20113;-60
2023/01/03 11:30:08;;;;;;;7.10;3.33;;;;;;;;;;5039705;28;20484;-62
2023/01/03 11:32:42;;;;;;;8.80;3.85;;;9.40;99.90;;;;;;5039604;28;20436;-60
2023/01/03 11:35:29;;;;;;;7.03;3.45;;;9.40;99.90;;;;;;5043269;28;20535;-60
2023/01/03 11:38:32;;;;;;;7.95;3.28;;;9.50;99.90;;;;;;5040150;28;20036;-61
2023/01/03 11:41:39;;;;;;;9.38;3.25;;;9.60;99.90;;;;;;5036368;28;20392;-60
2023/01/03 11:44:28;;;;;;;6.40;2.95;;;9.60;99.90;;;;;;5005572;28;20033;-61
2023/01/03 11:47:09;;;;;;;8.55;2.72;;;9.50;99.90;;;;;;5039850;28;20033;-61
2023/01/03 11:49:56;;;;;;;7.38;2.45;;;9.60;99.90;;;;;;5042888;28;20037;-60
2023/01/03 11:52:29;;;;;;;4.10;2.10;;;9.70;99.90;;;;;;5040748;28;20064;-61
2023/01/03 11:55:29;;;;;;;6.47;2.50;;;9.70;99.90;;;;;;5035533;28;20036;-60
2023/01/03 11:57:57;;;;;;;8.25;2.45;;;9.80;99.90;;;;;;5042223;28;20040;-61
2023/01/03 12:00:42;;;;;;;8.68;2.70;;;9.90;99.90;;;;;;5042199;28;20454;-61
2023/01/03 12:03:29;;;;;;;8.50;2.03;;;10.00;99.90;;;;;;5041167;28;20033;-61
2023/01/03 12:06:12;;;;;;;5.47;2.00;;;10.00;99.90;;;;;;5023989;28;20029;-61
2023/01/03 12:08:55;;;;;;;11.23;2.28;;;10.10;99.90;;;;;;5043455;28;20051;-62
2023/01/03 12:11:53;;;;;;;6.53;1.65;;;10.10;99.90;;;;;;5041887;28;20032;-61
2023/01/03 12:14:30;;;;;;;8.75;2.10;;;10.00;99.90;;;;;;5030369;28;20105;-61
2023/01/03 12:17:06;;;;;;;5.03;1.90;;;9.90;99.90;;;;;;5040369;28;20812;-62
2023/01/03 12:20:10;;;;;;;5.90;1.98;;;9.80;99.90;;;;;;5030974;28;20117;-61
2023/01/03 12:22:44;;;;;;;6.07;1.85;;;9.80;99.90;;;;;;5018438;28;20037;-61
2023/01/03 12:25:41;;;;;;;8.32;1.77;;;9.80;99.90;;;;;;5040328;28;20039;-60
2023/01/03 12:28:09;;;;;;;7.35;2.03;;;9.70;99.90;;;;;;5018198;28;20029;-61
2023/01/03 12:30:43;;;;;;;8.60;1.95;;;9.80;99.90;;;;;;5042885;28;20685;-61
2023/01/03 12:33:25;;;;;;;7.20;1.80;;;9.80;99.90;;;;;;5042509;28;20139;-61
2023/01/03 12:36:12;;;;;;;7.00;2.00;;;9.90;99.90;;;;;;5040645;28;20175;-61
2023/01/03 12:38:44;;;;;;;7.60;2.40;;;9.90;99.90;;;;;;5042890;28;20045;-62
2023/01/03 12:41:32;;;;;;;7.10;1.70;;;9.90;99.90;;;;;;5025535;28;20037;-61
2023/01/03 12:44:10;;;;;;;9.63;1.90;;;9.90;99.90;;;;;;5046647;28;20045;-61
2023/01/03 12:46:43;;;;;;;6.32;1.80;;;9.90;99.90;;;;;;5044060;28;20072;-61
2023/01/03 12:49:17;;;;;;;5.03;1.92;;;10.00;99.90;;;;;;5046540;28;20033;-61
2023/01/03 12:51:43;;;;;;;6.20;1.88;;;10.00;99.90;;;;;;5046463;28;20467;-61
2023/01/03 12:54:23;;;;;;;6.72;2.00;;;10.00;99.90;;;;;;5038961;28;20050;-61
2023/01/03 12:57:10;;;;;;;6.53;1.80;;;9.90;99.90;;;;;;5042526;28;20487;-60
2023/01/03 12:59:49;;;;;;;4.53;1.88;;;9.90;99.90;;;;;;5027214;28;20041;-60
2023/01/03 13:02:26;;;;;;;3.88;2.00;;;10.00;99.90;;;;;;5043833;28;20065;-61
2023/01/03 13:04:57;;;;;;;6.40;1.73;;;10.00;99.90;;;;;;5044553;28;20599;-60
2023/01/03 13:07:30;;;;;;;4.75;1.90;;;10.00;99.90;;;;;;5023603;28;20072;-61
2023/01/03 13:10:04;;;;;;;6.20;2.00;;;10.10;99.90;;;;;;5018366;28;20081;-62
2023/01/03 13:12:34;;;;;;;7.55;2.28;;;10.10;99.90;;;;;;5040906;28;20033;-62
2023/01/03 13:15:12;;;;;;;8.32;2.20;;;10.10;99.90;;;;;;5042553;28;20059;-61
2023/01/03 13:17:48;;;;;;;5.78;2.63;;;10.10;99.90;;;;;;5043288;28;20094;-61
2023/01/03 13:20:13;;;;;;;8.27;1.95;;;10.20;99.90;;;;;;5044537;28;20025;-61
2023/01/03 13:22:57;;;;;;;8.27;1.83;;;10.20;99.90;;;;;;5045432;28;20044;-60
2023/01/03 13:25:27;;;;;;;4.40;1.65;;;10.10;99.90;;;;;;5041736;28;20043;-60
2023/01/03 13:27:57;;;;;;;5.00;1.70;;;10.00;99.90;;;;;;5044386;28;20144;-60
2023/01/03 13:30:28;;;;;;;6.43;2.00;;;10.20;99.90;;;;;;5039716;28;20029;-62
2023/01/03 13:33:09;;;;;;;6.35;1.77;;;10.20;99.90;;;;;;5020807;28;20033;-60
2023/01/03 13:35:36;;;;;;;5.70;1.50;;;10.30;99.90;;;;;;5042990;28;20061;-60
2023/01/03 13:38:34;;;;;;;4.95;1.42;;;10.30;99.90;;;;;;5034841;28;20508;-61
2023/01/03 13:41:08;;;;;;;3.97;1.58;;;10.30;99.90;;;;;;5010205;28;20026;-62
2023/01/03 13:43:36;;;;;;;4.25;1.48;;;10.20;99.90;;;;;;5036384;28;20386;-60
2023/01/03 13:46:24;;;;;;;5.88;1.38;;;10.20;99.90;;;;;;5042284;28;20072;-61
2023/01/03 13:48:57;;;;;;;3.38;1.10;;;10.10;99.90;;;;;;5025601;28;20562;-60
2023/01/03 13:51:32;;;;;;;6.00;1.20;;;10.00;99.90;;;;;;5042050;28;20036;-61
2023/01/03 13:54:20;;;;;;;3.45;1.10;;;9.90;99.90;;;;;;5044067;28;20067;-60
2023/01/03 13:56:49;;;;;;;5.72;1.00;;;9.90;99.90;;;;;;5018455;28;20056;-60
2023/01/03 13:59:17;;;;;;;6.43;1.27;;;9.90;99.90;;;;;;5018782;28;20025;-60
2023/01/03 14:01:58;;;;;;;3.88;1.10;;;10.00;99.90;;;;;;5028254;28;20065;-60
2023/01/03 14:04:39;;;;;;;3.22;1.13;;;9.90;99.90;;;;;;5021540;28;20040;-60
2023/01/03 14:07:35;;;;;;;4.10;1.42;;;9.80;99.90;;;;;;5020533;28;20049;-60
2023/01/03 14:10:31;;;;;;;2.17;0.90;;;9.90;99.90;;;;;;5031269;28;20112;-61
2023/01/03 14:13:09;;;;;;;2.28;1.00;;;9.80;99.90;;;;;;5043114;28;20029;-60